Time;durP1;ratioP1;P1;durP2;ratioP2;P2;SDS_P1;SDS_P2;PMS_P1;PMS_P2;Temp;Humidity;BMP_temperature;BMP_pressure;BME280_temperature;BME280_humidity;BME280_pressure;Samples;Min_cycle;Max_cycle;Signal;HPM_P1;HPM_P2
2022/05/25 00:01:48;;;;;;;16.20;13.65;;;;;;;18.54;95.73;99713.44;5105189;28;20041;-72
2022/05/25 00:04:15;;;;;;;15.23;13.60;;;;;;;18.51;95.45;99730.78;5123598;28;20111;-72
2022/05/25 00:06:40;;;;;;;18.00;12.75;;;;;;;18.63;95.70;99726.44;5123735;28;20031;-72
2022/05/25 00:09:06;;;;;;;13.45;11.32;;;;;;;18.83;94.06;99725.53;5123714;28;20038;-72
2022/05/25 00:11:32;;;;;;;13.20;11.48;;;;;;;18.90;93.43;99723.63;5123625;28;20089;-72
2022/05/25 00:13:57;;;;;;;13.48;12.07;;;;;;;18.94;92.23;99719.47;5123212;28;20372;-72
2022/05/25 00:16:22;;;;;;;14.02;11.63;;;;;;;18.81;93.08;99718.50;5123483;28;20050;-72
2022/05/25 00:21:32;;;;;;;14.27;10.95;;;;;;;19.06;91.56;99731.16;5123686;28;20027;-72
2022/05/25 00:23:58;;;;;;;11.88;10.63;;;;;;;19.17;90.97;99740.34;5123164;28;20027;-72
2022/05/25 00:26:24;;;;;;;11.50;10.30;;;;;;;19.28;89.50;99743.16;5122918;28;20103;-72
2022/05/25 00:28:50;;;;;;;14.13;10.85;;;;;;;19.30;89.76;99745.63;5120862;28;20028;-72
2022/05/25 00:31:16;;;;;;;14.57;10.32;;;;;;;19.32;90.41;99748.91;5104289;28;20098;-72
2022/05/25 00:33:41;;;;;;;12.63;10.07;;;;;;;19.36;90.55;99737.50;5119647;28;20039;-72
2022/05/25 00:36:07;;;;;;;12.82;9.65;;;;;;;19.44;88.42;99739.91;5119888;28;20035;-72
2022/05/25 00:38:33;;;;;;;15.63;10.45;;;;;;;19.51;86.99;99739.03;5121657;28;20047;-72
2022/05/25 00:40:58;;;;;;;12.05;10.35;;;;;;;19.36;87.04;99736.69;5102019;28;20015;-72
2022/05/25 00:43:24;;;;;;;11.13;10.05;;;;;;;19.24;88.07;99735.75;5119394;28;20031;-72
2022/05/25 00:46:04;;;;;;;13.25;11.43;;;;;;;19.18;88.85;99736.63;5120800;28;20089;-72
2022/05/25 00:48:48;;;;;;;11.35;10.18;;;;;;;19.25;89.29;99729.34;5121811;28;20028;-72
2022/05/25 00:51:21;;;;;;;13.68;10.35;;;;;;;19.29;87.37;99735.94;5121289;28;20038;-72
2022/05/25 00:54:39;;;;;;;12.85;9.95;;;;;;;19.33;87.43;99739.81;5122406;28;20054;-72
2022/05/25 00:57:12;;;;;;;16.02;10.77;;;;;;;19.31;88.46;99748.09;5062791;28;20055;-72
2022/05/25 00:59:44;;;;;;;13.43;10.80;;;;;;;19.36;88.93;99750.13;5117528;28;20036;-72
2022/05/25 01:02:09;;;;;;;12.18;10.98;;;;;;;19.43;88.56;99757.06;5118395;28;20072;-72
2022/05/25 01:04:35;;;;;;;13.55;10.90;;;;;;;19.52;88.22;99756.81;5119432;28;20035;-72
2022/05/25 01:07:07;;;;;;;11.90;10.70;;;;;;;19.52;88.39;99752.28;5118241;28;20225;-72
2022/05/25 01:09:54;;;;;;;15.25;10.68;;;;;;;19.53;88.63;99756.63;5118506;28;20031;-72
2022/05/25 01:12:33;;;;;;;13.45;11.50;;;;;;;19.53;88.32;99751.25;5117025;28;20271;-72
2022/05/25 01:15:04;;;;;;;12.68;10.80;;;;;;;19.66;88.22;99761.03;5116586;28;20035;-72
2022/05/25 01:18:00;;;;;;;13.13;11.43;;;;;;;19.53;88.79;99763.84;5115666;28;20068;-72
2022/05/25 01:20:43;;;;;;;14.68;12.00;;;;;;;19.40;89.48;99767.44;5117611;28;20110;-72
2022/05/25 01:23:11;;;;;;;14.98;10.80;;;;;;;19.21;90.45;99773.78;5118219;28;20127;-72
2022/05/25 01:25:55;;;;;;;15.77;11.45;;;;;;;19.16;91.25;99776.28;5118330;28;20040;-72
2022/05/25 01:28:35;;;;;;;13.93;11.32;;;;;;;18.71;93.38;99789.72;5115833;28;20030;-72
2022/05/25 01:31:12;;;;;;;15.38;11.57;;;;;;;18.42;95.43;99786.50;5100487;28;20225;-72
2022/05/25 01:33:43;;;;;;;15.75;11.85;;;;;;;18.25;97.23;99790.69;5108899;28;20036;-72
2022/05/25 01:36:23;;;;;;;18.65;13.82;;;;;;;18.03;99.31;99789.31;5118082;28;20320;-72
2022/05/25 01:38:58;;;;;;;19.17;13.70;;;;;;;17.96;100.00;99788.50;5117867;28;20104;-72
2022/05/25 01:41:38;;;;;;;22.25;15.95;;;;;;;18.12;100.00;99799.59;5118059;28;20217;-72
2022/05/25 01:44:12;;;;;;;22.55;15.65;;;;;;;18.38;99.43;99790.66;5118339;28;20027;-72
2022/05/25 01:46:43;;;;;;;19.55;15.50;;;;;;;18.50;98.50;99788.13;5115988;28;20042;-73
2022/05/25 01:49:14;;;;;;;17.55;15.50;;;;;;;18.57;98.64;99783.56;5121109;28;20035;-72
2022/05/25 01:51:55;;;;;;;17.77;15.32;;;;;;;18.62;98.63;99786.47;5119836;28;20027;-72
2022/05/25 01:54:28;;;;;;;17.77;15.63;;;;;;;18.63;98.14;99790.78;5115316;28;20038;-72
2022/05/25 01:56:57;;;;;;;17.75;15.00;;;;;;;18.62;97.56;99796.38;5120453;28;20031;-72
2022/05/25 01:59:23;;;;;;;13.90;12.43;;;;;;;18.69;95.80;99799.84;5120326;28;20271;-72
2022/05/25 02:04:19;;;;;;;10.77;9.65;;;;;;;18.38;95.37;99803.22;5119280;28;20032;-72
2022/05/25 02:04:39;;;;;;;13.82;10.30;;;;;;;18.13;97.10;99805.78;5117735;28;20286;-72
2022/05/25 02:07:43;;;;;;;15.13;11.40;;;;;;;18.22;97.82;99809.88;5118060;28;20313;-72
2022/05/25 02:10:31;;;;;;;11.97;10.70;;;;;;;18.22;97.72;99823.28;5119672;28;20042;-72
2022/05/25 02:13:40;;;;;;;12.07;9.55;;;;;;;18.17;97.04;99817.72;5122404;28;20461;-72
2022/05/25 02:16:47;;;;;;;9.48;8.48;;;;;;;18.24;95.64;99823.88;5122201;28;20316;-72
2022/05/25 02:19:45;;;;;;;8.18;7.35;;;;;;;18.34;95.17;99824.28;5124031;28;20035;-72
2022/05/25 02:22:15;;;;;;;12.35;7.97;;;;;;;18.35;93.96;99827.78;5111302;28;20066;-72
2022/05/25 02:24:52;;;;;;;10.20;7.10;;;;;;;18.14;95.17;99831.53;5122460;28;20035;-72
2022/05/25 02:27:33;;;;;;;10.45;7.50;;;;;;;18.11;94.66;99829.28;5122086;28;20142;-72
2022/05/25 02:30:04;;;;;;;11.18;7.15;;;;;;;18.25;94.01;99838.94;5122382;28;20381;-72
2022/05/25 02:32:41;;;;;;;9.35;6.72;;;;;;;18.07;93.93;99828.03;5121175;28;20027;-72
2022/05/25 02:35:09;;;;;;;10.38;7.35;;;;;;;18.22;93.48;99828.63;5121211;28;20039;-72
2022/05/25 02:37:35;;;;;;;8.10;6.25;;;;;;;18.16;93.63;99826.78;5116471;28;20055;-72
2022/05/25 02:40:05;;;;;;;10.63;5.75;;;;;;;18.25;92.93;99832.75;5121761;28;20019;-72
2022/05/25 02:42:31;;;;;;;7.88;5.30;;;;;;;18.34;91.93;99831.50;5121443;28;20038;-72
2022/05/25 02:44:56;;;;;;;12.63;6.40;;;;;;;18.28;91.60;99849.25;5122019;28;20085;-72
2022/05/25 02:47:22;;;;;;;11.13;6.53;;;;;;;18.17;92.40;99850.69;5123655;28;20031;-72
2022/05/25 02:49:47;;;;;;;10.88;5.95;;;;;;;18.17;92.21;99849.88;5124248;28;20020;-72
2022/05/25 02:52:13;;;;;;;15.35;5.32;;;;;;;17.94;93.15;99850.31;5123711;28;20031;-72
2022/05/25 02:54:39;;;;;;;11.80;6.35;;;;;;;17.73;94.51;99850.53;5124392;28;20333;-72
2022/05/25 02:57:06;;;;;;;13.50;6.80;;;;;;;17.61;95.53;99863.66;5121629;28;20034;-72
2022/05/25 02:59:31;;;;;;;12.50;6.25;;;;;;;17.85;95.10;99860.41;5121654;28;20052;-72
2022/05/25 03:01:57;;;;;;;10.23;6.00;;;;;;;17.67;95.42;99867.38;5120624;28;20047;-72
2022/05/25 03:04:23;;;;;;;17.90;6.60;;;;;;;17.71;95.79;99860.63;5120932;28;20217;-72
2022/05/25 03:06:48;;;;;;;16.95;6.65;;;;;;;17.68;95.83;99861.00;5121820;28;20600;-72
2022/05/25 03:09:14;;;;;;;14.35;6.45;;;;;;;17.76;95.30;99860.84;5120877;28;20245;-72
2022/05/25 03:11:40;;;;;;;12.93;6.47;;;;;;;17.63;95.56;99871.47;5121673;28;20074;-72
2022/05/25 03:14:06;;;;;;;10.88;6.22;;;;;;;17.95;93.87;99865.38;5120511;28;20062;-72
2022/05/25 03:16:32;;;;;;;9.65;5.95;;;;;;;17.63;94.70;99871.47;5120610;28;20099;-72
2022/05/25 03:18:58;;;;;;;9.48;6.60;;;;;;;17.49;96.64;99866.09;5123845;28;20081;-72
2022/05/25 03:21:25;;;;;;;11.98;6.13;;;;;;;17.43;96.57;99874.94;5122006;28;20027;-72
2022/05/25 03:23:50;;;;;;;8.43;5.68;;;;;;;17.31;96.89;99881.91;5120124;28;20203;-72
2022/05/25 03:26:16;;;;;;;7.95;5.70;;;;;;;17.04;96.73;99889.03;5120674;28;20053;-72
2022/05/25 03:28:41;;;;;;;14.70;6.45;;;;;;;16.79;97.92;99885.25;5120746;28;20035;-72
2022/05/25 03:31:07;;;;;;;10.65;6.57;;;;;;;16.58;98.82;99878.91;5120189;28;20032;-72
2022/05/25 03:33:33;;;;;;;13.00;6.72;;;;;;;16.54;99.61;99891.00;5122385;28;20081;-72
2022/05/25 03:35:59;;;;;;;10.70;5.47;;;;;;;16.62;99.20;99898.06;5123106;28;20027;-72
2022/05/25 03:38:27;;;;;;;13.82;6.20;;;;;;;16.95;97.62;99902.78;5119995;28;20027;-72
2022/05/25 03:40:53;;;;;;;7.43;5.10;;;;;;;17.02;96.37;99903.66;5121013;27;20043;-72
2022/05/25 03:43:19;;;;;;;9.25;4.90;;;;;;;16.70;97.23;99897.13;5120387;28;20047;-72
2022/05/25 03:45:46;;;;;;;9.35;5.45;;;;;;;16.59;97.91;99906.47;5102658;28;20326;-72
2022/05/25 03:48:13;;;;;;;10.15;5.28;;;;;;;16.47;99.09;99903.50;5120849;28;20027;-72
2022/05/25 03:50:39;;;;;;;10.77;4.82;;;;;;;16.51;98.83;99903.94;5120017;28;20080;-72
2022/05/25 03:53:07;;;;;;;7.47;4.95;;;;;;;16.61;98.50;99907.09;5121155;28;20034;-73
2022/05/25 03:55:34;;;;;;;10.63;5.38;;;;;;;16.77;97.81;99914.84;5119731;28;20563;-72
2022/05/25 03:57:59;;;;;;;8.13;5.20;;;;;;;16.61;98.05;99915.94;5100972;28;20080;-72
2022/05/25 04:00:25;;;;;;;8.98;4.60;;;;;;;16.81;97.29;99917.97;5120889;28;20213;-72
2022/05/25 04:02:50;;;;;;;9.05;5.13;;;;;;;16.88;97.42;99916.13;5119711;28;20205;-73
2022/05/25 04:05:16;;;;;;;9.35;4.88;;;;;;;16.90;97.28;99917.59;5122836;28;20043;-72
2022/05/25 04:07:44;;;;;;;9.88;4.88;;;;;;;17.00;95.80;99927.09;5122102;28;20035;-72
2022/05/25 04:10:13;;;;;;;10.85;4.15;;;;;;;16.93;94.55;99927.06;5120346;28;20046;-72
2022/05/25 04:12:40;;;;;;;11.80;4.57;;;;;;;16.69;97.48;99932.91;5120174;28;20043;-72
2022/05/25 04:15:06;;;;;;;7.90;4.50;;;;;;;16.74;95.97;99936.63;5122389;28;20031;-72
2022/05/25 04:17:32;;;;;;;15.70;5.28;;;;;;;16.82;96.76;99935.66;5121458;28;20031;-72
2022/05/25 04:19:57;;;;;;;10.70;4.53;;;;;;;16.75;95.97;99932.94;5119315;28;20039;-72
2022/05/25 04:22:23;;;;;;;5.32;4.20;;;;;;;16.79;96.14;99933.38;5120177;28;20035;-72
2022/05/25 04:24:49;;;;;;;9.82;4.53;;;;;;;16.95;94.49;99926.88;5119193;28;20047;-73
2022/05/25 04:27:14;;;;;;;10.48;4.38;;;;;;;16.90;94.71;99932.81;5121265;28;20389;-74
2022/05/25 04:29:40;;;;;;;8.25;4.22;;;;;;;16.75;95.73;99940.97;5121828;28;20031;-73
2022/05/25 04:32:06;;;;;;;10.18;4.07;;;;;;;16.69;96.06;99943.59;5119693;28;20049;-73
2022/05/25 04:34:32;;;;;;;16.20;5.68;;;;;;;16.66;96.10;99944.81;5120108;28;20055;-73
2022/05/25 04:37:48;;;;;;;10.20;4.65;;;;;;;16.52;97.01;99949.19;5121699;28;20023;-72
2022/05/25 04:39:43;;;;;;;10.93;3.95;;;;;;;16.71;96.49;99939.72;5119906;28;20032;-72
2022/05/25 04:42:08;;;;;;;8.68;4.50;;;;;;;16.54;97.45;99944.47;5118972;28;20066;-72
2022/05/25 04:44:34;;;;;;;11.02;4.55;;;;;;;16.58;95.63;99942.25;5119923;28;20023;-72
2022/05/25 04:46:59;;;;;;;7.10;4.25;;;;;;;16.58;96.96;99953.75;5118676;28;20031;-72
2022/05/25 04:49:26;;;;;;;6.35;3.70;;;;;;;16.41;96.03;99957.75;5119738;28;20088;-72
2022/05/25 04:51:52;;;;;;;16.23;4.05;;;;;;;16.61;95.52;99941.84;5118507;28;20325;-72
2022/05/25 04:54:17;;;;;;;10.88;4.30;;;;;;;16.33;96.47;99946.38;5118484;28;20064;-72
2022/05/25 04:59:27;;;;;;;6.82;3.83;;;;;;;16.63;95.57;99945.16;5118633;28;20041;-72
2022/05/25 05:01:52;;;;;;;10.23;3.80;;;;;;;16.45;96.10;99950.16;5118299;28;20035;-72
2022/05/25 05:04:18;;;;;;;5.25;3.42;;;;;;;16.72;94.53;99957.41;5119520;28;20099;-72
2022/05/25 05:06:44;;;;;;;6.15;4.10;;;;;;;16.54;95.88;99962.38;5099738;28;20228;-72
2022/05/25 05:09:10;;;;;;;5.65;4.10;;;;;;;16.81;93.75;99969.59;5118887;28;20249;-72
2022/05/25 05:11:37;;;;;;;6.10;3.50;;;;;;;16.71;94.60;99973.63;5119030;28;20046;-72
2022/05/25 05:14:03;;;;;;;7.03;4.03;;;;;;;16.73;94.62;99966.25;5118470;28;20050;-72
2022/05/25 05:16:28;;;;;;;9.52;4.35;;;;;;;16.82;93.97;99986.47;5119231;28;20043;-72
2022/05/25 05:18:54;;;;;;;8.40;3.67;;;;;;;16.60;94.50;99978.44;5118063;28;20049;-72
2022/05/25 05:21:19;;;;;;;8.88;4.32;;;;;;;16.81;94.37;99969.59;5117730;28;20027;-72
2022/05/25 05:23:45;;;;;;;10.25;4.22;;;;;;;16.87;93.57;99976.81;5117798;28;20076;-72
2022/05/25 05:26:11;;;;;;;9.30;3.90;;;;;;;16.73;93.93;99980.44;5117476;28;20031;-72
2022/05/25 05:28:39;;;;;;;9.15;4.03;;;;;;;16.83;93.85;99972.91;5117224;28;20035;-72
2022/05/25 05:31:06;;;;;;;8.00;3.72;;;;;;;16.73;93.89;99974.28;5099593;28;20190;-72
2022/05/25 05:33:32;;;;;;;7.47;3.60;;;;;;;16.60;94.78;99978.44;5115997;28;20047;-72
2022/05/25 05:36:20;;;;;;;8.98;4.00;;;;;;;16.81;93.81;99990.16;5117948;28;20212;-72
2022/05/25 05:38:55;;;;;;;6.57;3.53;;;;;;;16.67;95.06;99988.44;5116958;28;20063;-72
2022/05/25 05:41:25;;;;;;;5.25;3.50;;;;;;;16.65;94.21;99995.78;5117956;28;20072;-72
2022/05/25 05:43:52;;;;;;;7.38;3.78;;;;;;;16.67;94.95;99997.28;5116229;28;20028;-72
2022/05/25 06:06:28;;;;;;;7.70;4.63;;;;;;;17.10;92.51;99989.91;5120001;28;20035;-72
2022/05/25 06:08:53;;;;;;;12.50;4.10;;;;;;;17.06;93.53;99980.63;5121515;28;20221;-72
2022/05/25 06:11:21;;;;;;;8.18;3.97;;;;;;;17.26;92.74;99993.28;5120901;28;20058;-72
2022/05/25 06:13:47;;;;;;;7.35;4.30;;;;;;;17.39;92.25;99990.66;5124498;28;20059;-72
2022/05/25 06:21:41;;;;;;;7.35;3.78;;;;;;;17.74;90.71;99992.28;5124780;28;20073;-72
2022/05/25 06:24:07;;;;;;;8.82;3.90;;;;;;;17.81;90.75;99998.47;5124707;27;20036;-72
2022/05/25 06:26:32;;;;;;;7.68;4.13;;;;;;;17.58;89.99;99991.75;5106451;28;20079;-72
2022/05/25 06:28:59;;;;;;;5.47;3.85;;;;;;;17.60;90.27;100005.75;5124539;28;20070;-72
2022/05/25 06:31:26;;;;;;;6.00;4.45;;;;;;;17.65;90.94;99998.78;5124823;28;20400;-72
2022/05/25 06:33:52;;;;;;;12.45;4.38;;;;;;;17.75;91.51;100001.13;5124090;28;20046;-72
2022/05/25 06:36:20;;;;;;;9.43;4.78;;;;;;;17.89;91.31;99999.31;5124637;28;20057;-72
2022/05/25 06:38:46;;;;;;;5.57;4.20;;;;;;;17.83;89.91;100012.47;5124356;28;20034;-72
2022/05/25 06:41:13;;;;;;;9.50;4.60;;;;;;;17.63;90.59;100011.53;5105787;28;20027;-72
2022/05/25 06:43:38;;;;;;;9.25;4.20;;;;;;;17.44;91.88;100010.44;5124350;28;20028;-71
2022/05/25 06:46:05;;;;;;;89.05;7.97;;;;;;;17.80;92.35;100012.06;5124443;28;20023;-72
2022/05/25 06:48:30;;;;;;;9.63;4.43;;;;;;;18.04;91.08;100018.72;5123970;28;20039;-71
2022/05/25 06:50:56;;;;;;;12.95;4.65;;;;;;;18.30;88.20;100025.94;5124290;27;20039;-71
2022/05/25 06:53:21;;;;;;;8.27;4.80;;;;;;;18.27;89.04;100013.78;5123936;28;20098;-73
2022/05/25 06:55:47;;;;;;;13.98;4.72;;;;;;;18.47;87.82;100025.34;5123762;28;20346;-72
2022/05/25 06:58:12;;;;;;;9.45;4.88;;;;;;;18.31;88.54;100031.09;5124238;28;20249;-72
2022/05/25 07:00:38;;;;;;;10.18;5.35;;;;;;;18.27;89.66;100024.50;5123900;28;20035;-72
2022/05/25 07:03:04;;;;;;;8.95;4.68;;;;;;;18.15;89.52;100015.41;5124203;28;20024;-72
2022/05/25 07:05:30;;;;;;;10.73;5.32;;;;;;;18.32;89.49;100034.59;5124081;28;20027;-72
2022/05/25 07:07:55;;;;;;;9.98;4.90;;;;;;;18.44;89.60;100032.97;5122793;28;20024;-72
2022/05/25 07:10:21;;;;;;;11.98;4.97;;;;;;;18.46;88.91;100015.63;5119907;28;20031;-72
2022/05/25 07:12:47;;;;;;;6.85;3.83;;;;;;;18.61;87.41;100023.50;5119379;28;20043;-73
2022/05/25 07:15:12;;;;;;;6.07;3.80;;;;;;;18.59;87.20;100019.34;5117783;28;20035;-72
2022/05/25 07:34:30;;;;;;;9.85;6.32;;;;;;;18.87;86.16;100035.28;5119223;28;20092;-72
2022/05/25 07:36:59;;;;;;;11.23;5.03;;;;;;;19.26;84.49;100043.22;5120166;28;20027;-72
2022/05/25 07:39:29;;;;;;;9.27;6.30;;;;;;;19.30;83.95;100038.25;5122017;28;20031;-72
2022/05/25 07:41:58;;;;;;;12.60;6.22;;;;;;;19.08;83.85;100035.03;5123418;28;20099;-73
2022/05/25 07:44:29;;;;;;;9.80;6.00;;;;;;;18.83;85.12;100044.78;5121774;28;20027;-72
2022/05/25 07:46:54;;;;;;;9.10;6.10;;;;;;;19.08;84.56;100038.53;5123215;28;20094;-73
2022/05/25 07:49:22;;;;;;;10.50;6.18;;;;;;;19.16;84.07;100034.78;5123244;27;20027;-72
2022/05/25 07:51:47;;;;;;;11.15;6.18;;;;;;;19.59;82.30;100045.00;5122732;28;20306;-72
2022/05/25 07:54:14;;;;;;;12.02;6.50;;;;;;;19.54;81.92;100045.63;5122893;28;20071;-72
2022/05/25 07:56:39;;;;;;;14.40;7.18;;;;;;;19.33;82.53;100045.91;5121625;28;20046;-73
2022/05/25 07:59:08;;;;;;;14.57;7.28;;;;;;;19.61;81.70;100057.19;5122564;28;20228;-73
2022/05/25 08:07:09;;;;;;;22.33;9.93;;;;;;;19.93;81.67;100044.66;5122011;28;20087;-73
2022/05/25 08:09:35;;;;;;;15.45;9.70;;;;;;;20.05;80.15;100052.84;5122746;28;20039;-74
2022/05/25 08:12:03;;;;;;;18.65;9.05;;;;;;;19.88;81.57;100039.09;5122637;28;20095;-72
2022/05/25 08:14:30;;;;;;;17.27;10.73;;;;;;;19.75;82.93;100050.72;5122230;28;20043;-72
2022/05/25 08:16:56;;;;;;;16.73;10.55;;;;;;;19.80;81.69;100051.97;5122823;27;20031;-72
2022/05/25 08:19:21;;;;;;;16.70;10.70;;;;;;;19.88;82.20;100047.16;5122457;28;20028;-73
2022/05/25 08:21:48;;;;;;;17.92;10.07;;;;;;;20.27;80.12;100048.78;5121957;28;20038;-73
2022/05/25 08:24:14;;;;;;;18.95;9.48;;;;;;;20.17;81.54;100050.28;5122903;28;20043;-73
2022/05/25 08:26:41;;;;;;;24.40;10.68;;;;;;;20.31;81.03;100057.22;5122334;28;20046;-74
2022/05/25 08:29:06;;;;;;;21.63;11.00;;;;;;;20.60;79.27;100067.38;5121955;28;20046;-73
2022/05/25 08:31:31;;;;;;;20.85;11.18;;;;;;;20.49;79.62;100070.78;5122470;28;20035;-73
2022/05/25 08:33:57;;;;;;;17.42;10.30;;;;;;;20.67;78.57;100072.72;5122091;28;20031;-73
2022/05/25 08:36:22;;;;;;;18.05;9.35;;;;;;;20.58;78.91;100074.03;5121968;28;20027;-73
2022/05/25 08:38:48;;;;;;;17.17;10.10;;;;;;;20.38;80.78;100074.16;5122126;28;20039;-74
2022/05/25 08:41:14;;;;;;;19.67;10.65;;;;;;;20.53;80.67;100069.31;5122029;28;20151;-73
2022/05/25 08:43:47;;;;;;;15.98;9.68;;;;;;;21.04;78.56;100079.84;5102739;28;20199;-73
2022/05/25 08:46:18;;;;;;;20.17;10.57;;;;;;;20.86;78.62;100065.53;5122314;28;20102;-73
2022/05/25 08:48:44;;;;;;;19.70;11.23;;;;;;;20.83;78.40;100066.81;5122015;28;20323;-73
2022/05/25 08:51:16;;;;;;;21.38;11.95;;;;;;;21.07;77.71;100067.81;5103485;28;20027;-73
2022/05/25 08:53:42;;;;;;;19.98;11.38;;;;;;;21.34;77.40;100058.44;5121911;28;20348;-73
2022/05/25 08:56:32;;;;;;;20.70;11.65;;;;;;;21.43;76.54;100063.53;5121995;28;20032;-72
2022/05/25 08:59:13;;;;;;;30.23;13.18;;;;;;;21.33;76.44;100040.63;5120778;28;20031;-73
2022/05/25 09:02:27;;;;;;;26.60;11.63;;;;;;;21.71;75.51;100058.41;5121057;28;20032;-73
2022/05/25 09:05:17;;;;;;;23.17;13.45;;;;;;;21.87;76.77;100060.50;5114979;28;20360;-73
2022/05/25 09:08:12;;;;;;;26.02;12.15;;;;;;;22.31;74.30;100063.84;5110097;28;20329;-71
2022/05/25 09:10:43;;;;;;;26.38;14.00;;;;;;;22.03;74.87;100072.56;5121999;28;20061;-71
2022/05/25 09:13:18;;;;;;;28.77;15.85;;;;;;;22.35;74.05;100069.59;5121112;28;20345;-71
2022/05/25 09:18:40;;;;;;;29.17;15.02;;;;;;;22.94;73.01;100060.56;5121373;28;20111;-71
2022/05/25 09:21:06;;;;;;;24.98;15.55;;;;;;;22.44;74.24;100058.25;5121132;28;20031;-70
2022/05/25 09:23:32;;;;;;;30.33;17.05;;;;;;;22.40;73.81;100051.66;5103117;28;20218;-73
2022/05/25 09:25:59;;;;;;;24.15;16.58;;;;;;;22.47;73.21;100049.69;5121709;28;20024;-71
2022/05/25 09:28:36;;;;;;;28.38;17.55;;;;;;;22.84;72.08;100058.44;5121035;28;20032;-71
2022/05/25 09:31:03;;;;;;;26.58;15.65;;;;;;;22.80;72.33;100073.47;5121328;28;20112;-71
2022/05/25 09:33:38;;;;;;;27.88;15.95;;;;;;;22.76;72.61;100071.44;5120190;28;20035;-73
2022/05/25 09:36:20;;;;;;;28.08;17.20;;;;;;;23.02;71.27;100056.69;5120275;28;20085;-71
2022/05/25 09:38:53;;;;;;;29.80;17.67;;;;;;;23.06;71.76;100055.16;5121267;28;20057;-70
2022/05/25 09:41:21;;;;;;;30.13;18.23;;;;;;;23.08;71.39;100061.97;5121510;28;20027;-71
2022/05/25 09:43:52;;;;;;;31.45;17.70;;;;;;;23.37;70.69;100052.06;5121213;28;20314;-71
2022/05/25 09:46:35;;;;;;;32.13;17.67;;;;;;;23.10;71.46;100046.34;5121710;28;20217;-73
2022/05/25 09:49:06;;;;;;;28.23;18.02;;;;;;;23.29;71.14;100044.34;5120827;28;20038;-75
2022/05/25 09:51:35;;;;;;;36.20;19.88;;;;;;;23.44;70.17;100054.66;5102621;28;20058;-71
2022/05/25 09:54:27;;;;;;;31.05;18.85;;;;;;;23.15;70.41;100061.84;5121511;28;20035;-73
2022/05/25 09:57:02;;;;;;;31.40;19.80;;;;;;;23.11;70.93;100050.69;5121650;28;20051;-71
2022/05/25 09:59:47;;;;;;;33.75;19.55;;;;;;;23.08;71.17;100045.78;5121853;28;20066;-71
2022/05/25 10:02:27;;;;;;;34.65;19.58;;;;;;;22.86;72.47;100045.53;5120931;28;20043;-71
2022/05/25 10:04:56;;;;;;;36.92;19.95;;;;;;;22.98;71.84;100042.84;5120395;28;20039;-71
2022/05/25 10:07:30;;;;;;;35.55;20.05;;;;;;;23.31;70.43;100047.63;5118541;28;20063;-71
2022/05/25 10:09:58;;;;;;;;;;;;;;;23.38;69.66;100042.09;5100218;28;20333;-71
2022/05/25 10:12:40;;;;;;;34.10;20.35;;;;;;;23.66;68.77;100046.75;5117317;28;19927;-71
2022/05/25 10:15:10;;;;;;;33.00;21.23;;;;;;;23.96;67.63;100041.94;5117521;28;20040;-71
2022/05/25 10:17:40;;;;;;;34.53;19.88;;;;;;;24.04;68.01;100040.72;5117475;28;20258;-71
2022/05/25 10:20:31;;;;;;;42.35;20.77;;;;;;;23.74;68.50;100035.53;5118288;28;20047;-71
2022/05/25 10:23:07;;;;;;;38.70;21.95;;;;;;;23.84;68.61;100047.38;5105217;28;20031;-71
2022/05/25 10:25:39;;;;;;;32.22;20.50;;;;;;;24.01;67.57;100055.56;5117921;28;20032;-71
2022/05/25 10:28:24;;;;;;;30.30;20.05;;;;;;;24.18;67.59;100045.59;5117707;28;20063;-72
2022/05/25 10:37:19;;;;;;;37.13;20.90;;;;;;;22.95;72.40;100023.59;5120385;28;20076;-71
2022/05/25 10:40:06;;;;;;;36.40;21.02;;;;;;;23.61;69.39;100031.25;5106578;28;20039;-71
2022/05/25 10:42:39;;;;;;;33.40;21.08;;;;;;;23.37;70.90;100025.06;5119975;28;20028;-71
2022/05/25 10:45:38;;;;;;;40.17;22.08;;;;;;;23.57;69.49;100024.66;5121871;28;20044;-71
2022/05/25 10:48:09;;;;;;;53.75;22.05;;;;;;;23.54;69.47;100022.41;5105014;28;20089;-72
2022/05/25 10:51:02;;;;;;;36.03;22.70;;;;;;;23.85;69.06;100013.84;5120596;28;20259;-71
2022/05/25 10:56:46;;;;;;;34.45;21.88;;;;;;;23.97;67.53;100018.41;5119709;28;20061;-71
2022/05/25 10:59:21;;;;;;;37.80;22.83;;;;;;;23.68;68.40;100023.00;5101465;28;20041;-72
2022/05/25 11:02:23;;;;;;;37.70;23.13;;;;;;;24.24;66.32;100024.03;5119171;27;20045;-72
2022/05/25 11:04:52;;;;;;;45.40;24.20;;;;;;;24.54;66.61;100018.34;5121160;28;20035;-71
2022/05/25 11:07:33;;;;;;;42.42;23.92;;;;;;;24.75;64.67;100020.28;5120564;28;20098;-71
2022/05/25 11:10:37;;;;;;;39.63;22.77;;;;;;;25.03;64.11;100024.81;5120455;28;20032;-71
2022/05/25 11:13:26;;;;;;;40.95;24.17;;;;;;;25.41;63.12;100007.69;5100692;28;20247;-72
2022/05/25 11:16:10;;;;;;;43.58;23.17;;;;;;;25.20;62.57;100003.09;5120532;28;20073;-71
2022/05/25 11:19:13;;;;;;;34.92;22.55;;;;;;;24.07;66.37;100007.78;5119949;28;20073;-71
2022/05/25 11:22:03;;;;;;;39.40;24.60;;;;;;;24.15;67.57;100008.19;5119682;28;20089;-71
2022/05/25 11:25:01;;;;;;;40.42;24.80;;;;;;;24.71;65.49;99994.78;5120586;28;20413;-71
2022/05/25 11:27:48;;;;;;;37.85;23.42;;;;;;;24.94;64.50;99985.59;5118685;28;20306;-71
2022/05/25 11:30:39;;;;;;;42.45;23.55;;;;;;;24.86;64.13;99981.44;5118968;28;20043;-71
2022/05/25 11:33:07;;;;;;;38.42;23.73;;;;;;;24.98;63.91;99982.22;5077493;28;20078;-71
2022/05/25 11:35:44;;;;;;;41.20;24.23;;;;;;;24.14;67.13;99981.41;5119526;28;20028;-72
2022/05/25 11:38:21;;;;;;;41.10;25.67;;;;;;;23.98;68.56;99966.78;5121364;28;20134;-71
2022/05/25 11:40:54;;;;;;;37.65;23.02;;;;;;;24.29;66.23;99978.16;5120342;28;20382;-71
2022/05/25 11:43:55;;;;;;;37.75;23.60;;;;;;;24.31;66.62;99979.53;5118578;27;20031;-71
2022/05/25 11:46:46;;;;;;;42.50;24.52;;;;;;;24.28;67.90;99976.50;5116369;27;20392;-71
2022/05/25 11:49:43;;;;;;;41.88;24.30;;;;;;;24.32;66.03;99972.25;5118918;28;20031;-72
2022/05/25 11:52:42;;;;;;;40.03;24.77;;;;;;;23.88;70.13;99975.50;5119904;28;20249;-71
2022/05/25 11:55:41;;;;;;;38.88;23.25;;;;;;;24.10;70.57;99972.94;5118220;28;20055;-71
2022/05/25 11:58:38;;;;;;;42.15;24.08;;;;;;;23.93;71.79;99971.25;5120125;28;20564;-71
2022/05/25 12:01:29;;;;;;;38.97;23.20;;;;;;;23.72;71.65;99984.41;5119016;28;20019;-71
2022/05/25 12:04:20;;;;;;;38.53;23.25;;;;;;;23.79;69.97;99976.97;5118317;28;20039;-71
2022/05/25 12:07:18;;;;;;;40.25;23.42;;;;;;;23.98;69.07;99984.91;5114526;28;20036;-71
2022/05/25 12:09:44;;;;;;;39.42;22.27;;;;;;;24.04;72.11;99973.94;5111772;28;20044;-72
2022/05/25 12:12:34;;;;;;;39.03;23.95;;;;;;;24.07;70.47;99964.50;5120183;28;20040;-73
2022/05/25 12:15:06;;;;;;;37.58;23.60;;;;;;;24.49;68.14;99956.81;5119069;27;20040;-72
2022/05/25 12:17:37;;;;;;;41.10;23.00;;;;;;;24.47;67.74;99965.19;5119292;28;20038;-72
2022/05/25 12:20:09;;;;;;;40.15;21.80;;;;;;;23.76;72.27;99963.94;5118850;28;20062;-72
2022/05/25 12:22:35;;;;;;;36.38;22.58;;;;;;;23.85;72.94;99957.06;5117979;28;20038;-72
2022/05/25 12:25:09;;;;;;;38.35;22.70;;;;;;;24.02;72.18;99962.53;5119713;28;20099;-72
2022/05/25 12:27:40;;;;;;;;;;;;;;;23.99;70.21;99960.31;5119523;28;20519;-72
2022/05/25 12:30:28;;;;;;;39.13;22.80;;;;;;;23.74;71.57;99952.53;5118122;28;19969;-72
2022/05/25 12:32:54;;;;;;;36.35;22.02;;;;;;;24.03;70.17;99945.22;5118371;28;20046;-72
2022/05/25 12:35:22;;;;;;;35.70;22.67;;;;;;;23.98;70.56;99930.81;5118529;28;20067;-72
2022/05/25 12:37:51;;;;;;;36.75;21.50;;;;;;;23.71;71.32;99938.69;5118304;28;20020;-72
2022/05/25 12:40:44;;;;;;;35.75;22.55;;;;;;;23.77;70.40;99943.94;5100495;28;20032;-72
2022/05/25 12:43:35;;;;;;;38.10;21.60;;;;;;;24.06;70.05;99933.94;5115954;28;20079;-72
2022/05/25 12:48:56;;;;;;;36.95;22.35;;;;;;;23.88;71.15;99955.75;5117976;27;20313;-71
2022/05/25 12:51:39;;;;;;;32.17;22.33;;;;;;;24.11;70.01;99950.25;5118023;28;20044;-72
2022/05/25 12:54:28;;;;;;;36.72;22.88;;;;;;;24.32;69.65;99942.47;5117777;28;20055;-72